sensor_id;sensor_type;location;lat;lon;timestamp;temperature;humidity
68648;SHT31;55632;51.962;16.116;2023-05-29T00:05:52;8.78;69.43
68648;SHT31;55632;51.962;16.116;2023-05-29T00:12:25;8.74;69.50
68648;SHT31;55632;51.962;16.116;2023-05-29T00:18:53;8.64;69.53
68648;SHT31;55632;51.962;16.116;2023-05-29T00:25:08;8.53;69.32
68648;SHT31;55632;51.962;16.116;2023-05-29T00:31:49;8.37;69.29
68648;SHT31;55632;51.962;16.116;2023-05-29T00:38:09;8.28;69.25
68648;SHT31;55632;51.962;16.116;2023-05-29T00:50:33;8.09;69.67
68648;SHT31;55632;51.962;16.116;2023-05-29T01:02:55;7.95;70.73
68648;SHT31;55632;51.962;16.116;2023-05-29T01:09:38;7.87;70.84
68648;SHT31;55632;51.962;16.116;2023-05-29T01:28:47;7.53;70.94
68648;SHT31;55632;51.962;16.116;2023-05-29T01:35:30;7.39;71.33
68648;SHT31;55632;51.962;16.116;2023-05-29T01:41:48;7.28;71.70
68648;SHT31;55632;51.962;16.116;2023-05-29T01:47:56;7.22;72.16
68648;SHT31;55632;51.962;16.116;2023-05-29T02:19:24;6.93;72.77
68648;SHT31;55632;51.962;16.116;2023-05-29T02:25:40;6.86;73.30
68648;SHT31;55632;51.962;16.116;2023-05-29T02:31:39;6.80;73.89
68648;SHT31;55632;51.962;16.116;2023-05-29T02:37:40;6.80;73.97
68648;SHT31;55632;51.962;16.116;2023-05-29T02:49:44;6.66;73.39
68648;SHT31;55632;51.962;16.116;2023-05-29T02:56:07;6.62;73.40
68648;SHT31;55632;51.962;16.116;2023-05-29T03:02:31;6.57;73.12
68648;SHT31;55632;51.962;16.116;2023-05-29T03:15:28;6.59;73.38
68648;SHT31;55632;51.962;16.116;2023-05-29T03:40:56;7.90;72.80
68648;SHT31;55632;51.962;16.116;2023-05-29T03:47:23;8.52;72.27
68648;SHT31;55632;51.962;16.116;2023-05-29T03:53:59;9.27;72.37
68648;SHT31;55632;51.962;16.116;2023-05-29T04:06:58;10.72;71.25
68648;SHT31;55632;51.962;16.116;2023-05-29T04:20:02;12.12;69.02
68648;SHT31;55632;51.962;16.116;2023-05-29T04:26:28;12.51;67.80
68648;SHT31;55632;51.962;16.116;2023-05-29T04:32:40;12.79;67.29
68648;SHT31;55632;51.962;16.116;2023-05-29T04:52:29;14.24;64.95
68648;SHT31;55632;51.962;16.116;2023-05-29T05:30:45;15.93;61.29
68648;SHT31;55632;51.962;16.116;2023-05-29T05:37:11;16.41;61.11
68648;SHT31;55632;51.962;16.116;2023-05-29T05:55:46;17.57;58.50
68648;SHT31;55632;51.962;16.116;2023-05-29T06:02:04;17.84;58.06
68648;SHT31;55632;51.962;16.116;2023-05-29T06:27:57;19.36;55.10
68648;SHT31;55632;51.962;16.116;2023-05-29T06:34:34;19.82;54.12
68648;SHT31;55632;51.962;16.116;2023-05-29T06:41:00;20.18;53.32
68648;SHT31;55632;51.962;16.116;2023-05-29T06:53:46;20.98;51.23
68648;SHT31;55632;51.962;16.116;2023-05-29T06:59:58;21.18;50.73
68648;SHT31;55632;51.962;16.116;2023-05-29T07:05:56;21.30;50.12
68648;SHT31;55632;51.962;16.116;2023-05-29T07:10:57;21.40;49.83
68648;SHT31;55632;51.962;16.116;2023-05-29T07:15:58;21.58;49.15
68648;SHT31;55632;51.962;16.116;2023-05-29T07:21:06;21.74;48.63
68648;SHT31;55632;51.962;16.116;2023-05-29T07:26:07;21.78;48.33
68648;SHT31;55632;51.962;16.116;2023-05-29T07:31:07;21.96;47.52
68648;SHT31;55632;51.962;16.116;2023-05-29T07:36:08;21.99;47.36
68648;SHT31;55632;51.962;16.116;2023-05-29T07:41:09;21.78;46.66
68648;SHT31;55632;51.962;16.116;2023-05-29T07:46:13;21.71;46.68
68648;SHT31;55632;51.962;16.116;2023-05-29T07:51:16;21.71;47.22
68648;SHT31;55632;51.962;16.116;2023-05-29T07:56:20;21.86;47.52
68648;SHT31;55632;51.962;16.116;2023-05-29T08:01:22;21.96;46.75
68648;SHT31;55632;51.962;16.116;2023-05-29T08:06:24;21.95;46.56
68648;SHT31;55632;51.962;16.116;2023-05-29T08:17:07;22.32;46.46
68648;SHT31;55632;51.962;16.116;2023-05-29T08:22:07;22.47;45.67
68648;SHT31;55632;51.962;16.116;2023-05-29T08:27:08;22.37;46.05
68648;SHT31;55632;51.962;16.116;2023-05-29T08:32:09;22.58;45.89
68648;SHT31;55632;51.962;16.116;2023-05-29T08:37:09;22.88;45.46
68648;SHT31;55632;51.962;16.116;2023-05-29T08:42:13;23.09;44.64
68648;SHT31;55632;51.962;16.116;2023-05-29T08:47:18;23.16;42.45
68648;SHT31;55632;51.962;16.116;2023-05-29T08:52:24;23.05;42.22
68648;SHT31;55632;51.962;16.116;2023-05-29T08:57:31;23.10;41.65
68648;SHT31;55632;51.962;16.116;2023-05-29T09:02:33;23.19;41.57
68648;SHT31;55632;51.962;16.116;2023-05-29T09:07:34;23.26;41.40
68648;SHT31;55632;51.962;16.116;2023-05-29T09:12:35;23.33;40.40
68648;SHT31;55632;51.962;16.116;2023-05-29T09:17:37;23.24;40.56
68648;SHT31;55632;51.962;16.116;2023-05-29T09:22:42;23.10;40.43
68648;SHT31;55632;51.962;16.116;2023-05-29T09:27:43;23.14;40.77
68648;SHT31;55632;51.962;16.116;2023-05-29T09:32:44;23.24;39.85
68648;SHT31;55632;51.962;16.116;2023-05-29T09:37:45;23.36;38.53
68648;SHT31;55632;51.962;16.116;2023-05-29T09:42:46;23.41;39.09
68648;SHT31;55632;51.962;16.116;2023-05-29T09:47:50;23.51;38.72
68648;SHT31;55632;51.962;16.116;2023-05-29T09:52:51;23.59;39.06
68648;SHT31;55632;51.962;16.116;2023-05-29T09:57:54;23.82;39.31
68648;SHT31;55632;51.962;16.116;2023-05-29T10:02:55;23.96;39.08
68648;SHT31;55632;51.962;16.116;2023-05-29T10:07:56;24.14;38.07
68648;SHT31;55632;51.962;16.116;2023-05-29T10:12:56;24.12;37.59
68648;SHT31;55632;51.962;16.116;2023-05-29T10:18:03;24.17;38.10
68648;SHT31;55632;51.962;16.116;2023-05-29T10:23:06;24.24;37.78
68648;SHT31;55632;51.962;16.116;2023-05-29T10:28:07;24.19;38.78
68648;SHT31;55632;51.962;16.116;2023-05-29T10:38:30;24.51;37.50
68648;SHT31;55632;51.962;16.116;2023-05-29T10:43:32;24.45;36.87
68648;SHT31;55632;51.962;16.116;2023-05-29T10:48:37;24.57;37.21
68648;SHT31;55632;51.962;16.116;2023-05-29T10:53:40;24.45;37.06
68648;SHT31;55632;51.962;16.116;2023-05-29T10:58:42;24.37;36.80
68648;SHT31;55632;51.962;16.116;2023-05-29T11:03:43;24.71;36.22
68648;SHT31;55632;51.962;16.116;2023-05-29T11:13:53;24.76;35.71
68648;SHT31;55632;51.962;16.116;2023-05-29T11:18:55;24.97;35.20
68648;SHT31;55632;51.962;16.116;2023-05-29T11:23:58;24.95;35.47
68648;SHT31;55632;51.962;16.116;2023-05-29T11:29:00;24.80;35.47
68648;SHT31;55632;51.962;16.116;2023-05-29T11:34:02;24.79;35.47
68648;SHT31;55632;51.962;16.116;2023-05-29T11:39:04;24.73;36.10
68648;SHT31;55632;51.962;16.116;2023-05-29T11:44:05;24.82;36.22
68648;SHT31;55632;51.962;16.116;2023-05-29T11:49:06;24.73;35.97
68648;SHT31;55632;51.962;16.116;2023-05-29T11:54:07;24.86;35.92
68648;SHT31;55632;51.962;16.116;2023-05-29T11:59:10;25.19;35.25
68648;SHT31;55632;51.962;16.116;2023-05-29T12:04:15;25.24;35.08
68648;SHT31;55632;51.962;16.116;2023-05-29T12:09:28;25.12;34.97
68648;SHT31;55632;51.962;16.116;2023-05-29T12:14:30;25.09;34.03
68648;SHT31;55632;51.962;16.116;2023-05-29T12:19:30;25.00;34.03
68648;SHT31;55632;51.962;16.116;2023-05-29T12:24:31;24.93;34.79
68648;SHT31;55632;51.962;16.116;2023-05-29T12:29:33;24.68;35.08
68648;SHT31;55632;51.962;16.116;2023-05-29T12:34:34;24.37;34.82
68648;SHT31;55632;51.962;16.116;2023-05-29T12:39:38;24.20;35.60
68648;SHT31;55632;51.962;16.116;2023-05-29T12:44:38;24.16;35.75
68648;SHT31;55632;51.962;16.116;2023-05-29T12:49:39;24.05;35.44
68648;SHT31;55632;51.962;16.116;2023-05-29T12:54:41;24.06;35.65
68648;SHT31;55632;51.962;16.116;2023-05-29T12:59:42;24.02;35.25
68648;SHT31;55632;51.962;16.116;2023-05-29T13:04:42;23.92;35.69
68648;SHT31;55632;51.962;16.116;2023-05-29T13:09:43;23.75;35.45
68648;SHT31;55632;51.962;16.116;2023-05-29T13:14:43;23.65;36.00
68648;SHT31;55632;51.962;16.116;2023-05-29T13:19:44;23.64;36.01
68648;SHT31;55632;51.962;16.116;2023-05-29T13:24:45;23.61;35.70
68648;SHT31;55632;51.962;16.116;2023-05-29T13:29:46;23.54;36.25
68648;SHT31;55632;51.962;16.116;2023-05-29T13:34:47;23.46;36.38
68648;SHT31;55632;51.962;16.116;2023-05-29T13:39:48;23.44;36.33
68648;SHT31;55632;51.962;16.116;2023-05-29T13:44:52;23.31;36.66
68648;SHT31;55632;51.962;16.116;2023-05-29T13:49:53;23.19;36.61
68648;SHT31;55632;51.962;16.116;2023-05-29T13:54:54;23.26;36.70
68648;SHT31;55632;51.962;16.116;2023-05-29T13:59:55;23.44;37.32
68648;SHT31;55632;51.962;16.116;2023-05-29T14:04:55;23.61;36.84
68648;SHT31;55632;51.962;16.116;2023-05-29T14:09:56;23.83;35.81
68648;SHT31;55632;51.962;16.116;2023-05-29T14:14:57;23.74;35.78
68648;SHT31;55632;51.962;16.116;2023-05-29T14:19:57;23.74;35.41
68648;SHT31;55632;51.962;16.116;2023-05-29T14:25:01;23.96;35.49
68648;SHT31;55632;51.962;16.116;2023-05-29T14:30:05;24.21;35.17
68648;SHT31;55632;51.962;16.116;2023-05-29T14:35:06;24.36;35.00
68648;SHT31;55632;51.962;16.116;2023-05-29T14:40:10;24.48;34.56
68648;SHT31;55632;51.962;16.116;2023-05-29T14:50:25;24.51;34.03
68648;SHT31;55632;51.962;16.116;2023-05-29T14:55:26;24.47;33.88
68648;SHT31;55632;51.962;16.116;2023-05-29T15:00:27;24.41;33.52
68648;SHT31;55632;51.962;16.116;2023-05-29T15:05:28;24.33;33.72
68648;SHT31;55632;51.962;16.116;2023-05-29T15:10:33;24.09;33.57
68648;SHT31;55632;51.962;16.116;2023-05-29T15:15:34;24.02;33.39
68648;SHT31;55632;51.962;16.116;2023-05-29T15:20:34;24.00;33.66
68648;SHT31;55632;51.962;16.116;2023-05-29T15:25:35;24.06;33.72
68648;SHT31;55632;51.962;16.116;2023-05-29T15:30:42;24.19;33.42
68648;SHT31;55632;51.962;16.116;2023-05-29T15:35:45;24.24;33.23
68648;SHT31;55632;51.962;16.116;2023-05-29T15:40:47;24.17;33.12
68648;SHT31;55632;51.962;16.116;2023-05-29T15:45:47;24.10;33.32
68648;SHT31;55632;51.962;16.116;2023-05-29T15:50:55;24.02;33.11
68648;SHT31;55632;51.962;16.116;2023-05-29T15:55:56;23.98;33.37
68648;SHT31;55632;51.962;16.116;2023-05-29T16:00:57;23.89;33.70
68648;SHT31;55632;51.962;16.116;2023-05-29T16:05:58;23.74;33.13
68648;SHT31;55632;51.962;16.116;2023-05-29T16:10:58;23.55;33.85
68648;SHT31;55632;51.962;16.116;2023-05-29T16:16:00;23.33;33.91
68648;SHT31;55632;51.962;16.116;2023-05-29T16:21:02;23.17;34.13
68648;SHT31;55632;51.962;16.116;2023-05-29T16:26:06;23.10;34.21
68648;SHT31;55632;51.962;16.116;2023-05-29T16:31:08;22.95;35.01
68648;SHT31;55632;51.962;16.116;2023-05-29T16:36:08;22.87;34.83
68648;SHT31;55632;51.962;16.116;2023-05-29T16:41:12;22.71;35.32
68648;SHT31;55632;51.962;16.116;2023-05-29T16:46:16;22.62;35.36
68648;SHT31;55632;51.962;16.116;2023-05-29T16:51:17;22.45;35.43
68648;SHT31;55632;51.962;16.116;2023-05-29T16:56:18;22.37;35.51
68648;SHT31;55632;51.962;16.116;2023-05-29T17:01:19;22.29;36.03
68648;SHT31;55632;51.962;16.116;2023-05-29T17:06:20;22.14;36.26
68648;SHT31;55632;51.962;16.116;2023-05-29T17:11:21;22.01;36.13
68648;SHT31;55632;51.962;16.116;2023-05-29T17:16:22;21.86;36.38
68648;SHT31;55632;51.962;16.116;2023-05-29T17:21:23;21.74;37.08
68648;SHT31;55632;51.962;16.116;2023-05-29T17:26:24;21.62;37.71
68648;SHT31;55632;51.962;16.116;2023-05-29T17:31:25;21.54;37.73
68648;SHT31;55632;51.962;16.116;2023-05-29T17:36:26;21.46;38.02
68648;SHT31;55632;51.962;16.116;2023-05-29T17:41:30;21.37;38.20
68648;SHT31;55632;51.962;16.116;2023-05-29T17:46:31;21.22;38.60
68648;SHT31;55632;51.962;16.116;2023-05-29T17:51:32;21.09;38.97
68648;SHT31;55632;51.962;16.116;2023-05-29T17:56:34;20.91;39.39
68648;SHT31;55632;51.962;16.116;2023-05-29T18:01:34;20.68;40.13
68648;SHT31;55632;51.962;16.116;2023-05-29T18:06:36;20.47;40.44
68648;SHT31;55632;51.962;16.116;2023-05-29T18:11:39;20.29;40.74
68648;SHT31;55632;51.962;16.116;2023-05-29T18:16:44;20.11;41.16
68648;SHT31;55632;51.962;16.116;2023-05-29T18:21:45;19.98;41.77
68648;SHT31;55632;51.962;16.116;2023-05-29T18:26:46;19.84;42.13
68648;SHT31;55632;51.962;16.116;2023-05-29T18:31:49;19.66;42.61
68648;SHT31;55632;51.962;16.116;2023-05-29T18:36:50;19.49;42.99
68648;SHT31;55632;51.962;16.116;2023-05-29T18:41:54;19.34;43.33
68648;SHT31;55632;51.962;16.116;2023-05-29T18:46:55;19.19;43.69
68648;SHT31;55632;51.962;16.116;2023-05-29T18:51:56;19.01;44.04
68648;SHT31;55632;51.962;16.116;2023-05-29T18:56:57;18.87;44.41
68648;SHT31;55632;51.962;16.116;2023-05-29T19:01:59;18.68;44.98
68648;SHT31;55632;51.962;16.116;2023-05-29T19:07:00;18.46;45.58
68648;SHT31;55632;51.962;16.116;2023-05-29T19:12:01;18.25;46.11
68648;SHT31;55632;51.962;16.116;2023-05-29T19:17:02;18.09;46.61
68648;SHT31;55632;51.962;16.116;2023-05-29T19:22:07;17.93;46.90
68648;SHT31;55632;51.962;16.116;2023-05-29T19:27:10;17.83;47.26
68648;SHT31;55632;51.962;16.116;2023-05-29T19:32:14;17.66;47.71
68648;SHT31;55632;51.962;16.116;2023-05-29T19:37:19;17.49;48.01
68648;SHT31;55632;51.962;16.116;2023-05-29T19:42:20;17.35;48.51
68648;SHT31;55632;51.962;16.116;2023-05-29T19:47:22;17.21;48.98
68648;SHT31;55632;51.962;16.116;2023-05-29T19:52:23;17.07;49.37
68648;SHT31;55632;51.962;16.116;2023-05-29T19:57:23;16.95;49.71
68648;SHT31;55632;51.962;16.116;2023-05-29T20:02:27;16.81;49.96
68648;SHT31;55632;51.962;16.116;2023-05-29T20:07:33;16.73;50.30
68648;SHT31;55632;51.962;16.116;2023-05-29T20:12:33;16.64;50.63
68648;SHT31;55632;51.962;16.116;2023-05-29T20:17:36;16.51;50.97
68648;SHT31;55632;51.962;16.116;2023-05-29T20:22:38;16.38;51.31
68648;SHT31;55632;51.962;16.116;2023-05-29T20:27:38;16.30;51.60
68648;SHT31;55632;51.962;16.116;2023-05-29T20:32:39;16.17;51.89
68648;SHT31;55632;51.962;16.116;2023-05-29T20:37:42;16.05;52.25
68648;SHT31;55632;51.962;16.116;2023-05-29T20:42:46;15.94;52.58
68648;SHT31;55632;51.962;16.116;2023-05-29T20:47:49;15.87;52.86
68648;SHT31;55632;51.962;16.116;2023-05-29T20:52:56;15.76;53.19
68648;SHT31;55632;51.962;16.116;2023-05-29T20:57:56;15.66;53.42
68648;SHT31;55632;51.962;16.116;2023-05-29T21:02:59;15.52;53.67
68648;SHT31;55632;51.962;16.116;2023-05-29T21:08:03;15.43;54.00
68648;SHT31;55632;51.962;16.116;2023-05-29T21:13:04;15.38;54.27
68648;SHT31;55632;51.962;16.116;2023-05-29T21:18:05;15.28;54.49
68648;SHT31;55632;51.962;16.116;2023-05-29T21:23:06;15.20;54.74
68648;SHT31;55632;51.962;16.116;2023-05-29T21:28:07;15.12;54.85
68648;SHT31;55632;51.962;16.116;2023-05-29T21:33:08;15.04;55.14
68648;SHT31;55632;51.962;16.116;2023-05-29T21:38:08;14.94;55.44
68648;SHT31;55632;51.962;16.116;2023-05-29T21:43:10;14.86;55.65
68648;SHT31;55632;51.962;16.116;2023-05-29T21:48:11;14.70;55.90
68648;SHT31;55632;51.962;16.116;2023-05-29T21:53:11;14.62;56.36
68648;SHT31;55632;51.962;16.116;2023-05-29T21:58:12;14.51;56.73
68648;SHT31;55632;51.962;16.116;2023-05-29T22:03:18;14.41;57.07
68648;SHT31;55632;51.962;16.116;2023-05-29T22:08:19;14.31;57.29
68648;SHT31;55632;51.962;16.116;2023-05-29T22:13:20;14.20;57.51
68648;SHT31;55632;51.962;16.116;2023-05-29T22:18:22;14.11;57.84
68648;SHT31;55632;51.962;16.116;2023-05-29T22:23:22;14.03;58.06
68648;SHT31;55632;51.962;16.116;2023-05-29T22:28:23;13.96;58.33
68648;SHT31;55632;51.962;16.116;2023-05-29T22:33:24;13.86;58.75
68648;SHT31;55632;51.962;16.116;2023-05-29T22:38:27;13.80;59.02
68648;SHT31;55632;51.962;16.116;2023-05-29T22:43:27;13.70;59.31
68648;SHT31;55632;51.962;16.116;2023-05-29T22:48:28;13.63;59.47
68648;SHT31;55632;51.962;16.116;2023-05-29T22:53:29;13.55;59.61
68648;SHT31;55632;51.962;16.116;2023-05-29T22:58:30;13.47;59.92
68648;SHT31;55632;51.962;16.116;2023-05-29T23:03:30;13.38;60.26
68648;SHT31;55632;51.962;16.116;2023-05-29T23:08:33;13.30;60.54
68648;SHT31;55632;51.962;16.116;2023-05-29T23:13:34;13.23;60.93
68648;SHT31;55632;51.962;16.116;2023-05-29T23:18:34;13.18;61.27
68648;SHT31;55632;51.962;16.116;2023-05-29T23:23:38;13.14;61.56
68648;SHT31;55632;51.962;16.116;2023-05-29T23:28:38;13.13;61.78
68648;SHT31;55632;51.962;16.116;2023-05-29T23:33:42;13.11;61.91
68648;SHT31;55632;51.962;16.116;2023-05-29T23:38:48;13.08;62.11
68648;SHT31;55632;51.962;16.116;2023-05-29T23:43:48;13.03;62.29
68648;SHT31;55632;51.962;16.116;2023-05-29T23:48:50;12.96;62.43
68648;SHT31;55632;51.962;16.116;2023-05-29T23:53:51;12.88;62.71
68648;SHT31;55632;51.962;16.116;2023-05-29T23:58:52;12.82;62.95
